Time;durP1;ratioP1;P1;durP2;ratioP2;P2;SDS_P1;SDS_P2;PMS_P1;PMS_P2;Temp;Humidity;BMP_temperature;BMP_pressure;BME280_temperature;BME280_humidity;BME280_pressure;Samples;Min_cycle;Max_cycle;Signal;HPM_P1;HPM_P2
2022/12/16 00:01:10;;;;;;;57.97;23.23;;;;;;;-3.91;100.00;100935.06;5006858;28;20469;-76
2022/12/16 00:03:36;;;;;;;50.53;20.73;;;;;;;-3.88;100.00;100930.72;5025319;28;20032;-76
2022/12/16 00:06:03;;;;;;;68.32;52.80;;;;;;;-3.89;100.00;100930.75;5027236;28;20029;-76
2022/12/16 00:08:32;;;;;;;66.15;53.35;;;;;;;-3.86;100.00;100926.41;5009355;28;20037;-76
2022/12/16 00:10:59;;;;;;;52.97;24.95;;;;;;;-3.76;100.00;100928.84;5023653;28;20034;-76
2022/12/16 00:13:25;;;;;;;53.53;22.67;;;;;;;-3.69;100.00;100925.31;5030203;28;20028;-77
2022/12/16 00:15:50;;;;;;;53.78;24.50;;;;;;;-3.65;100.00;100927.81;5031959;28;20029;-77
2022/12/16 00:18:18;;;;;;;41.88;21.10;;;;;;;-3.60;100.00;100922.59;5013555;28;20033;-76
2022/12/16 00:20:48;;;;;;;48.67;22.92;;;;;;;-3.55;100.00;100933.69;5013857;28;20033;-76
2022/12/16 00:23:14;;;;;;;63.70;51.00;;;;;;;-3.57;100.00;100928.56;5014040;28;20029;-76
2022/12/16 00:25:44;;;;;;;65.57;52.13;;;;;;;-3.53;100.00;100922.50;5032284;28;20021;-76
2022/12/16 00:28:10;;;;;;;64.57;51.35;;;;;;;-3.50;100.00;100919.88;5012427;28;20060;-76
2022/12/16 00:30:36;;;;;;;45.85;21.90;;;;;;;-3.39;100.00;100922.28;5030807;28;20053;-76
2022/12/16 00:33:01;;;;;;;54.90;21.48;;;;;;;-3.34;100.00;100915.34;5032490;28;20029;-76
2022/12/16 00:35:26;;;;;;;52.80;22.85;;;;;;;-3.28;100.00;100924.69;5031302;28;20028;-76
2022/12/16 00:37:52;;;;;;;47.88;21.23;;;;;;;-3.25;100.00;100922.91;5023427;28;20034;-76
2022/12/16 00:40:17;;;;;;;45.40;22.50;;;;;;;-3.21;100.00;100916.84;4993969;28;20037;-76
2022/12/16 00:42:42;;;;;;;60.00;48.20;;;;;;;-3.24;100.00;100916.03;5027936;28;20539;-76
2022/12/16 00:45:08;;;;;;;47.15;21.88;;;;;;;-3.14;100.00;100914.19;5031881;28;20047;-76
2022/12/16 00:47:33;;;;;;;50.40;22.90;;;;;;;-3.09;100.00;100922.69;5030553;28;20040;-77
2022/12/16 00:49:58;;;;;;;58.40;48.95;;;;;;;-3.20;100.00;100916.00;5013779;28;20029;-76
2022/12/16 00:52:24;;;;;;;45.85;20.83;;;;;;;-3.05;100.00;100932.88;5013132;28;20026;-75
2022/12/16 00:54:49;;;;;;;48.50;20.20;;;;;;;-3.01;100.00;100928.53;5013643;28;20466;-75
2022/12/16 00:57:14;;;;;;;47.95;21.75;;;;;;;-2.98;100.00;100931.06;5009939;28;21587;-75
2022/12/16 00:59:40;;;;;;;59.75;49.22;;;;;;;-3.03;100.00;100930.28;5030703;28;20591;-75
2022/12/16 01:02:06;;;;;;;44.05;21.60;;;;;;;-2.93;100.00;100926.66;5012351;28;20513;-76
2022/12/16 01:04:31;;;;;;;46.25;20.13;;;;;;;-2.88;100.00;100930.88;5029269;28;20026;-75
2022/12/16 01:06:56;;;;;;;58.88;46.13;;;;;;;-2.96;100.00;100932.72;5029732;28;20033;-75
2022/12/16 01:09:22;;;;;;;57.05;46.65;;;;;;;-2.90;100.00;100937.75;5029078;28;20025;-75
2022/12/16 01:11:47;;;;;;;56.58;45.33;;;;;;;-2.90;100.00;100936.91;5011664;28;20106;-75
2022/12/16 01:14:12;;;;;;;41.53;19.95;;;;;;;-2.79;100.00;100941.91;5010847;28;21318;-75
2022/12/16 01:16:38;;;;;;;46.25;21.40;;;;;;;-2.75;100.00;100941.81;5029203;28;20482;-75
2022/12/16 01:19:03;;;;;;;43.92;21.00;;;;;;;-2.71;100.00;100952.91;5030670;28;20032;-75
2022/12/16 01:21:29;;;;;;;56.30;45.30;;;;;;;-2.81;100.00;100952.19;5030288;28;20029;-75
2022/12/16 01:23:54;;;;;;;41.70;20.27;;;;;;;-2.68;100.00;100956.28;5029980;28;20022;-75
2022/12/16 01:26:20;;;;;;;58.60;46.78;;;;;;;-2.76;100.00;100955.56;5029871;28;20025;-75
2022/12/16 01:28:47;;;;;;;37.35;19.85;;;;;;;-2.64;100.00;100965.63;5029433;28;20033;-75
2022/12/16 01:31:14;;;;;;;57.38;45.90;;;;;;;-2.69;100.00;100962.31;5011733;28;20518;-75
2022/12/16 01:33:39;;;;;;;55.67;45.15;;;;;;;-2.67;100.00;100970.84;5030166;28;20104;-75
2022/12/16 01:36:06;;;;;;;43.10;21.77;;;;;;;-2.57;100.00;100967.22;5012391;28;20534;-75
2022/12/16 01:38:32;;;;;;;46.40;20.60;;;;;;;-2.54;100.00;100966.31;5012016;28;20390;-75
2022/12/16 01:40:57;;;;;;;54.20;44.92;;;;;;;-2.69;100.00;100972.59;5031211;28;20033;-76
2022/12/16 01:43:36;;;;;;;55.20;45.40;;;;;;;-2.71;100.00;100974.34;5013020;28;20025;-76
2022/12/16 01:46:05;;;;;;;56.95;46.50;;;;;;;-2.66;100.00;100982.84;5011999;28;20040;-75
2022/12/16 01:49:00;;;;;;;38.75;20.70;;;;;;;-2.52;100.00;100991.16;5013173;28;20040;-76
2022/12/16 01:51:36;;;;;;;44.20;20.88;;;;;;;-2.49;100.00;100986.84;5023063;28;20049;-76
2022/12/16 01:54:40;;;;;;;55.65;44.55;;;;;;;-2.56;100.00;100988.66;5013134;28;20026;-76
2022/12/16 01:57:11;;;;;;;40.85;20.08;;;;;;;-2.46;100.00;100989.34;5030336;28;20041;-75
2022/12/16 01:59:40;;;;;;;59.47;46.40;;;;;;;-2.57;100.00;100980.09;5027804;28;20023;-76
2022/12/16 02:02:06;;;;;;;58.70;46.30;;;;;;;-2.59;100.00;100989.56;5021079;28;20038;-76
2022/12/16 02:04:31;;;;;;;54.35;44.97;;;;;;;-2.56;100.00;100989.53;5021175;28;20036;-76
2022/12/16 02:06:58;;;;;;;56.88;46.15;;;;;;;-2.58;100.00;100991.28;5011750;28;20473;-76
2022/12/16 02:09:24;;;;;;;48.80;20.23;;;;;;;-2.42;100.00;101001.28;5030272;28;20048;-76
2022/12/16 02:11:56;;;;;;;46.05;19.50;;;;;;;-2.39;100.00;100996.97;5011561;28;20049;-76
2022/12/16 02:14:45;;;;;;;45.30;19.37;;;;;;;-2.37;100.00;101004.66;5011996;28;20651;-76
2022/12/16 02:17:30;;;;;;;38.50;18.90;;;;;;;-2.36;100.00;101006.34;5030581;28;20376;-76
2022/12/16 02:20:26;;;;;;;54.40;43.83;;;;;;;-2.40;100.00;101013.28;5017307;28;20033;-76
2022/12/16 02:23:46;;;;;;;55.78;46.05;;;;;;;-2.37;100.00;101004.66;5033997;28;20059;-76
2022/12/16 02:26:29;;;;;;;45.05;19.38;;;;;;;-2.32;100.00;101016.56;4971657;28;20113;-76
2022/12/16 02:29:03;;;;;;;58.03;46.92;;;;;;;-2.41;100.00;101014.16;4971766;28;20035;-75
2022/12/16 02:31:53;;;;;;;56.83;45.28;;;;;;;-2.42;100.00;101016.75;5015709;28;20053;-75
2022/12/16 02:34:57;;;;;;;47.05;21.25;;;;;;;-2.30;100.00;101012.25;5028388;28;20017;-75
2022/12/16 02:37:25;;;;;;;46.35;20.38;;;;;;;-2.28;100.00;101019.94;5025635;28;20053;-75
2022/12/16 02:40:36;;;;;;;55.22;45.83;;;;;;;-2.34;100.00;101025.22;5015054;28;20026;-75
2022/12/16 02:43:40;;;;;;;57.83;46.65;;;;;;;-2.37;100.00;101020.97;5031161;28;20405;-75
2022/12/16 02:46:07;;;;;;;56.10;46.30;;;;;;;-2.38;100.00;101023.56;4988098;28;20103;-75
2022/12/16 02:48:33;;;;;;;58.92;48.13;;;;;;;-2.41;100.00;101023.59;5012773;28;20104;-75
2022/12/16 02:50:58;;;;;;;57.72;48.17;;;;;;;-2.40;100.00;101023.59;5017825;28;20574;-75
2022/12/16 02:53:24;;;;;;;48.45;22.17;;;;;;;-2.26;100.00;101025.91;5019612;28;20044;-75
2022/12/16 02:56:04;;;;;;;57.97;47.47;;;;;;;-2.35;100.00;101028.66;5032952;28;20029;-75
2022/12/16 02:58:48;;;;;;;51.58;22.35;;;;;;;-2.25;100.00;101025.88;5033894;28;20080;-75
2022/12/16 03:01:35;;;;;;;58.25;47.60;;;;;;;-2.37;100.00;101026.13;4998860;28;20022;-75
2022/12/16 03:04:26;;;;;;;57.60;48.30;;;;;;;-2.33;100.00;101032.91;5014813;28;20036;-76
2022/12/16 03:06:54;;;;;;;61.78;51.22;;;;;;;-2.34;100.00;101030.38;5022780;28;20024;-75
2022/12/16 03:09:33;;;;;;;64.00;51.90;;;;;;;-2.38;100.00;101023.56;5012839;28;20036;-76
2022/12/16 03:12:01;;;;;;;68.68;53.25;;;;;;;-2.40;100.00;101025.28;5014064;28;20029;-75
2022/12/16 03:14:32;;;;;;;68.13;53.92;;;;;;;-2.37;100.00;101030.44;5013619;28;20100;-76
2022/12/16 03:16:58;;;;;;;65.05;53.35;;;;;;;-2.34;100.00;101035.53;5030480;28;20176;-76
2022/12/16 03:19:26;;;;;;;64.57;53.60;;;;;;;-2.38;100.00;101044.19;5032660;28;20030;-76
2022/12/16 03:21:58;;;;;;;64.28;53.67;;;;;;;-2.36;100.00;101040.69;5032944;28;20055;-76
2022/12/16 03:24:25;;;;;;;46.58;22.65;;;;;;;-2.20;100.00;101043.84;5027941;28;20056;-76
2022/12/16 03:27:03;;;;;;;67.97;53.85;;;;;;;-2.31;100.00;101041.47;5032965;28;20375;-76
2022/12/16 03:29:35;;;;;;;70.72;55.90;;;;;;;-2.31;100.00;101046.63;5012656;28;20065;-76
2022/12/16 03:32:08;;;;;;;62.97;52.77;;;;;;;-2.31;100.00;101045.78;5014781;28;20060;-76
2022/12/16 03:34:35;;;;;;;65.90;54.28;;;;;;;-2.31;100.00;101045.78;5030835;28;20026;-76
2022/12/16 03:37:07;;;;;;;47.53;23.42;;;;;;;-2.17;100.00;101046.34;5014099;28;20029;-75
2022/12/16 03:39:54;;;;;;;69.88;55.42;;;;;;;-2.29;100.00;101044.00;5011550;28;20029;-76
2022/12/16 03:42:20;;;;;;;68.93;57.10;;;;;;;-2.29;100.00;101050.00;5025958;28;20537;-76
2022/12/16 03:44:46;;;;;;;50.03;24.25;;;;;;;-2.14;100.00;101048.03;5014057;28;20039;-76
2022/12/16 03:47:12;;;;;;;67.32;55.15;;;;;;;-2.25;100.00;101059.38;5014594;28;20537;-76
2022/12/16 03:49:38;;;;;;;70.03;57.00;;;;;;;-2.29;100.00;101060.31;5032494;28;20079;-76
2022/12/16 03:52:07;;;;;;;48.92;23.83;;;;;;;-2.13;100.00;101060.88;5029641;28;20478;-76
2022/12/16 03:54:33;;;;;;;72.55;56.75;;;;;;;-2.27;100.00;101056.00;5029888;28;20488;-76
2022/12/16 03:56:59;;;;;;;73.22;56.55;;;;;;;-2.25;100.00;101058.53;5023768;28;20026;-76
2022/12/16 03:59:24;;;;;;;55.55;25.58;;;;;;;-2.10;100.00;101065.13;5026780;28;20033;-76
2022/12/16 04:01:50;;;;;;;51.47;24.58;;;;;;;-2.08;100.00;101064.22;5031255;28;20609;-76
2022/12/16 04:04:17;;;;;;;72.53;56.25;;;;;;;-2.16;100.00;101071.25;5031030;28;20033;-76
2022/12/16 04:06:42;;;;;;;76.45;60.00;;;;;;;-2.16;100.00;101068.66;5031795;28;20029;-76
2022/12/16 04:09:08;;;;;;;80.93;58.95;;;;;;;-2.13;100.00;101075.50;5032167;28;20033;-76
2022/12/16 04:25:23;;;;;;;78.07;61.38;;;;;;;-2.07;100.00;101086.53;5026294;28;20099;-76
2022/12/16 04:27:48;;;;;;;79.90;61.83;;;;;;;-2.04;100.00;101096.78;5017852;28;20029;-76
2022/12/16 04:30:18;;;;;;;75.80;59.80;;;;;;;-2.03;100.00;101098.50;5032190;28;20049;-76
